Time;durP1;ratioP1;P1;durP2;ratioP2;P2;SDS_P1;SDS_P2;PMS_P1;PMS_P2;Temp;Humidity;BMP_temperature;BMP_pressure;BME280_temperature;BME280_humidity;BME280_pressure;Samples;Min_cycle;Max_cycle;Signal;HPM_P1;HPM_P2
2024/03/06 00:01:54;;;;;;;30.55;14.00;;;4.80;99.90;;;;;;5062063;28;20032;-77
2024/03/06 00:04:20;;;;;;;31.55;14.43;;;4.80;99.90;;;;;;5061796;28;20418;-75
2024/03/06 00:06:45;;;;;;;31.70;14.25;;;4.80;99.90;;;;;;5062117;28;20040;-75
2024/03/06 00:09:11;;;;;;;32.05;14.43;;;4.80;99.90;;;;;;5060597;28;20083;-74
2024/03/06 00:11:38;;;;;;;25.67;13.55;;;4.80;99.90;;;;;;5061235;28;20037;-76
2024/03/06 00:14:06;;;;;;;31.25;14.25;;;4.80;99.90;;;;;;5060561;28;20036;-74
2024/03/06 00:16:32;;;;;;;28.60;14.55;;;4.80;99.90;;;;;;5059984;28;20036;-75
2024/03/06 00:18:58;;;;;;;31.92;14.77;;;4.80;99.90;;;;;;5061510;28;20037;-74
2024/03/06 00:21:23;;;;;;;30.55;14.68;;;4.80;99.90;;;;;;5060716;28;20025;-75
2024/03/06 00:23:49;;;;;;;29.52;13.73;;;4.80;99.90;;;;;;5058867;28;20037;-74
2024/03/06 00:26:14;;;;;;;29.73;14.27;;;4.80;99.90;;;;;;5060659;28;20037;-74
2024/03/06 00:28:40;;;;;;;30.27;14.30;;;4.70;99.90;;;;;;5060374;28;20029;-74
2024/03/06 00:31:06;;;;;;;28.58;14.10;;;4.70;99.90;;;;;;5061620;28;20055;-74
2024/03/06 00:33:31;;;;;;;28.23;13.80;;;4.70;99.90;;;;;;5062123;28;20079;-75
2024/03/06 00:35:57;;;;;;;29.63;14.30;;;4.70;99.90;;;;;;5060045;28;20100;-75
2024/03/06 00:38:23;;;;;;;31.48;14.55;;;4.70;99.90;;;;;;5061664;28;20078;-74
2024/03/06 00:40:48;;;;;;;27.17;15.23;;;4.70;99.90;;;;;;5060357;28;20017;-75
2024/03/06 00:43:14;;;;;;;30.42;14.88;;;4.70;99.90;;;;;;5060388;28;20016;-73
2024/03/06 00:45:40;;;;;;;30.48;14.43;;;4.70;99.90;;;;;;5060047;28;20041;-75
2024/03/06 00:48:06;;;;;;;29.70;14.02;;;4.70;99.90;;;;;;5061742;28;20040;-75
2024/03/06 00:50:32;;;;;;;29.23;15.30;;;4.70;99.90;;;;;;5060305;28;20044;-75
2024/03/06 00:52:57;;;;;;;29.65;13.57;;;4.70;99.90;;;;;;5059985;28;20036;-74
2024/03/06 00:55:23;;;;;;;33.10;14.70;;;4.70;99.90;;;;;;5061751;28;20029;-75
2024/03/06 00:57:49;;;;;;;29.33;14.23;;;4.70;99.90;;;;;;5065380;28;20627;-74
2024/03/06 01:00:16;;;;;;;29.77;14.95;;;4.70;99.90;;;;;;5062618;28;20025;-75
2024/03/06 01:02:41;;;;;;;28.25;14.25;;;4.60;99.90;;;;;;5064989;28;20048;-75
2024/03/06 01:05:09;;;;;;;29.42;14.45;;;4.60;99.90;;;;;;5065088;28;20024;-77
2024/03/06 01:07:37;;;;;;;30.20;14.30;;;4.60;99.90;;;;;;5063874;28;20043;-74
2024/03/06 01:10:03;;;;;;;29.70;14.25;;;4.60;99.90;;;;;;5064771;28;20056;-75
2024/03/06 01:12:29;;;;;;;27.63;14.15;;;4.60;99.90;;;;;;5065144;28;20397;-73
2024/03/06 01:14:55;;;;;;;29.88;14.75;;;4.70;99.90;;;;;;5064689;28;20052;-76
2024/03/06 01:17:21;;;;;;;29.27;14.20;;;4.60;99.90;;;;;;5063932;28;20016;-75
2024/03/06 01:19:46;;;;;;;30.58;14.45;;;4.60;99.90;;;;;;5064634;28;20462;-75
2024/03/06 01:22:13;;;;;;;30.50;14.32;;;4.60;99.90;;;;;;5061550;28;20052;-77
2024/03/06 01:24:39;;;;;;;32.05;14.85;;;4.70;99.90;;;;;;5064312;28;20033;-76
2024/03/06 01:27:04;;;;;;;31.92;15.25;;;4.70;99.90;;;;;;5063686;28;20033;-77
2024/03/06 01:29:30;;;;;;;28.80;14.32;;;4.60;99.90;;;;;;5064532;28;20029;-77
2024/03/06 01:31:56;;;;;;;31.52;14.25;;;4.60;99.90;;;;;;5064426;28;20048;-76
2024/03/06 01:34:25;;;;;;;27.95;14.38;;;4.60;99.90;;;;;;5064017;28;20025;-74
2024/03/06 01:36:51;;;;;;;29.33;13.45;;;4.60;99.90;;;;;;5062651;28;20460;-76
2024/03/06 01:39:17;;;;;;;31.27;14.68;;;4.60;99.90;;;;;;5063042;28;20120;-76
2024/03/06 01:41:47;;;;;;;26.50;13.50;;;4.70;99.90;;;;;;5062241;28;20044;-75
2024/03/06 01:44:13;;;;;;;28.95;14.75;;;4.60;99.90;;;;;;5062936;28;20029;-76
2024/03/06 01:46:46;;;;;;;33.67;14.55;;;4.60;99.90;;;;;;5057290;28;20048;-76
2024/03/06 01:49:15;;;;;;;28.73;14.45;;;4.60;99.90;;;;;;5063489;28;20017;-75
2024/03/06 01:51:44;;;;;;;30.52;14.68;;;4.60;99.90;;;;;;5062362;28;20029;-76
2024/03/06 01:54:10;;;;;;;30.88;13.68;;;4.60;99.90;;;;;;5062238;28;20112;-75
2024/03/06 01:56:41;;;;;;;27.08;13.63;;;4.70;99.90;;;;;;5063632;28;20075;-75
2024/03/06 01:59:07;;;;;;;29.58;13.98;;;4.60;99.90;;;;;;5063834;28;20051;-75
2024/03/06 02:01:33;;;;;;;29.27;14.55;;;4.60;99.90;;;;;;5061575;28;20021;-74
2024/03/06 02:03:59;;;;;;;28.38;14.10;;;4.60;99.90;;;;;;5062577;28;20093;-75
2024/03/06 02:06:26;;;;;;;30.08;14.05;;;4.60;99.90;;;;;;5061968;28;20440;-75
2024/03/06 02:08:51;;;;;;;27.63;13.43;;;4.60;99.90;;;;;;5063274;28;20382;-74
2024/03/06 02:11:17;;;;;;;27.02;13.55;;;4.50;99.90;;;;;;5062407;28;20024;-76
2024/03/06 02:13:46;;;;;;;29.42;14.02;;;4.40;99.90;;;;;;5062262;28;20029;-74
2024/03/06 02:16:11;;;;;;;34.10;15.43;;;4.50;99.90;;;;;;5062991;28;20036;-76
2024/03/06 02:18:37;;;;;;;31.92;14.50;;;4.50;99.90;;;;;;5060507;28;20033;-74
2024/03/06 02:21:04;;;;;;;29.98;13.73;;;4.50;99.90;;;;;;5063020;28;20028;-73
2024/03/06 02:23:33;;;;;;;34.15;15.30;;;4.50;99.90;;;;;;5063298;28;20183;-75
2024/03/06 02:25:59;;;;;;;34.63;15.02;;;4.50;99.90;;;;;;5062084;28;20051;-78
2024/03/06 02:28:24;;;;;;;33.97;14.35;;;4.50;99.90;;;;;;5062367;28;20037;-74
2024/03/06 02:30:54;;;;;;;30.05;14.63;;;4.50;99.90;;;;;;5062978;28;20073;-75
2024/03/06 02:33:20;;;;;;;37.28;15.52;;;4.50;99.90;;;;;;5063197;28;20025;-75
2024/03/06 02:35:46;;;;;;;30.33;14.45;;;4.50;99.90;;;;;;5061920;28;20063;-74
2024/03/06 02:38:12;;;;;;;31.30;15.18;;;4.50;99.90;;;;;;5061333;28;20402;-75
2024/03/06 02:40:38;;;;;;;30.73;14.43;;;4.50;99.90;;;;;;5061820;28;20104;-74
2024/03/06 02:43:04;;;;;;;29.80;13.93;;;4.40;99.90;;;;;;5062788;28;20021;-76
2024/03/06 02:45:30;;;;;;;33.53;14.10;;;4.40;99.90;;;;;;5062593;28;20028;-76
2024/03/06 02:47:56;;;;;;;28.67;14.80;;;4.40;99.90;;;;;;5063077;28;20021;-75
2024/03/06 02:50:23;;;;;;;28.63;14.30;;;4.40;99.90;;;;;;5063263;28;20085;-76
2024/03/06 02:52:48;;;;;;;29.77;13.52;;;4.40;99.90;;;;;;5061038;28;20457;-75
2024/03/06 02:55:15;;;;;;;32.80;14.40;;;4.40;99.90;;;;;;5062756;28;20021;-74
2024/03/06 02:57:40;;;;;;;30.17;13.88;;;4.30;99.90;;;;;;5061435;28;20029;-73
2024/03/06 03:00:12;;;;;;;29.48;14.20;;;4.30;99.90;;;;;;5060999;28;20562;-74
2024/03/06 03:02:39;;;;;;;29.00;14.18;;;4.30;99.90;;;;;;5063021;28;20092;-75
2024/03/06 03:05:08;;;;;;;32.60;13.82;;;4.30;99.90;;;;;;5061163;28;20048;-76
2024/03/06 03:07:33;;;;;;;29.98;13.80;;;4.30;99.90;;;;;;5062040;28;20093;-73
2024/03/06 03:09:59;;;;;;;34.05;14.50;;;4.20;99.90;;;;;;5061085;28;20068;-74
2024/03/06 03:12:24;;;;;;;27.80;13.65;;;4.20;99.90;;;;;;5062774;28;20029;-74
2024/03/06 03:14:50;;;;;;;33.42;14.40;;;4.20;99.90;;;;;;5060373;28;20853;-75
2024/03/06 03:17:19;;;;;;;27.15;14.13;;;4.10;99.90;;;;;;5059793;28;20173;-74
2024/03/06 03:19:45;;;;;;;27.48;13.32;;;4.10;99.90;;;;;;5061599;28;20029;-77
2024/03/06 03:22:10;;;;;;;26.05;13.45;;;4.30;99.90;;;;;;5062013;28;20549;-75
2024/03/06 03:24:37;;;;;;;31.05;13.75;;;4.10;99.90;;;;;;5060713;28;20056;-75
2024/03/06 03:27:02;;;;;;;31.27;14.32;;;4.10;99.90;;;;;;5061509;28;20037;-74
2024/03/06 03:29:29;;;;;;;30.27;13.93;;;4.10;99.90;;;;;;5059996;28;20140;-75
2024/03/06 03:31:55;;;;;;;26.90;13.48;;;4.00;99.90;;;;;;5062095;28;20028;-74
2024/03/06 03:34:20;;;;;;;29.30;13.68;;;4.10;99.90;;;;;;5061943;28;20021;-75
2024/03/06 03:36:47;;;;;;;29.42;13.90;;;4.00;99.90;;;;;;5061914;28;20390;-74
2024/03/06 03:39:16;;;;;;;29.13;13.73;;;4.00;99.90;;;;;;5060576;28;20025;-75
2024/03/06 03:41:45;;;;;;;29.08;14.20;;;4.00;99.90;;;;;;5060025;28;20033;-74
2024/03/06 03:44:12;;;;;;;31.27;14.57;;;4.00;99.90;;;;;;5061376;28;20092;-75
2024/03/06 03:46:38;;;;;;;35.40;14.65;;;3.90;99.90;;;;;;5058803;28;20029;-75
2024/03/06 03:49:03;;;;;;;35.58;14.90;;;3.90;99.90;;;;;;5061398;28;20788;-75
2024/03/06 03:51:29;;;;;;;36.63;15.13;;;3.90;99.90;;;;;;5059963;28;20111;-75
2024/03/06 03:53:54;;;;;;;35.92;15.57;;;3.90;99.90;;;;;;5061654;28;20090;-77
2024/03/06 03:56:20;;;;;;;30.88;14.23;;;3.90;99.90;;;;;;5060305;28;20043;-75
2024/03/06 03:58:45;;;;;;;29.42;14.20;;;3.90;99.90;;;;;;5053610;28;20028;-74
2024/03/06 04:01:11;;;;;;;33.80;14.60;;;3.80;99.90;;;;;;5059865;28;20057;-75
2024/03/06 04:03:37;;;;;;;29.83;14.27;;;3.90;99.90;;;;;;5061288;28;20071;-76
2024/03/06 04:06:03;;;;;;;32.47;13.95;;;3.80;99.90;;;;;;5059993;28;20033;-75
2024/03/06 04:08:29;;;;;;;29.45;14.35;;;3.90;99.90;;;;;;5060985;28;20029;-75
2024/03/06 04:10:54;;;;;;;35.92;14.90;;;3.90;99.90;;;;;;5060829;28;20112;-75
2024/03/06 04:13:21;;;;;;;35.83;16.08;;;3.90;99.90;;;;;;5060100;28;20025;-75
2024/03/06 04:15:46;;;;;;;32.35;14.18;;;3.90;99.90;;;;;;5061264;28;20425;-75
2024/03/06 04:18:12;;;;;;;31.90;14.95;;;3.90;99.90;;;;;;5060040;28;20033;-75
2024/03/06 04:20:38;;;;;;;30.35;14.15;;;4.00;99.90;;;;;;5059819;28;20025;-76
2024/03/06 04:23:03;;;;;;;35.38;14.43;;;4.00;99.90;;;;;;5061250;28;20029;-76
2024/03/06 04:25:29;;;;;;;38.92;15.07;;;4.00;99.90;;;;;;5061418;28;20056;-75
2024/03/06 04:27:55;;;;;;;30.08;14.00;;;4.00;99.90;;;;;;5057856;28;20032;-75
2024/03/06 04:30:21;;;;;;;29.45;14.48;;;3.90;99.90;;;;;;5062805;28;20021;-74
2024/03/06 04:32:46;;;;;;;29.23;14.63;;;3.90;99.90;;;;;;5065375;28;20117;-75
2024/03/06 04:35:12;;;;;;;36.60;15.50;;;3.90;99.90;;;;;;5064139;28;20462;-75
2024/03/06 04:37:38;;;;;;;29.15;14.68;;;3.90;99.90;;;;;;5065264;28;20088;-73
2024/03/06 04:40:07;;;;;;;31.80;15.25;;;4.00;99.90;;;;;;5063688;28;20028;-75
2024/03/06 04:42:36;;;;;;;35.05;15.07;;;3.90;99.90;;;;;;5063960;28;20056;-75
2024/03/06 04:45:03;;;;;;;31.23;14.88;;;3.90;99.90;;;;;;5063593;28;20112;-77
2024/03/06 04:47:29;;;;;;;34.65;15.02;;;3.90;99.90;;;;;;5064586;28;20473;-76
2024/03/06 04:49:54;;;;;;;36.72;15.70;;;3.90;99.90;;;;;;5065341;28;20048;-76
2024/03/06 04:52:20;;;;;;;30.08;15.10;;;3.90;99.90;;;;;;5063426;28;20079;-74
2024/03/06 04:54:45;;;;;;;32.47;14.93;;;3.90;99.90;;;;;;5062825;28;20096;-74
2024/03/06 04:57:11;;;;;;;34.47;15.32;;;3.80;99.90;;;;;;5064015;28;20040;-74
2024/03/06 04:59:36;;;;;;;31.45;14.68;;;3.80;99.90;;;;;;5064481;28;20473;-74
2024/03/06 05:02:03;;;;;;;33.40;14.90;;;3.90;99.90;;;;;;5064924;28;20021;-75
2024/03/06 05:04:29;;;;;;;33.42;15.50;;;3.80;99.90;;;;;;5065141;28;20029;-75
2024/03/06 05:06:55;;;;;;;31.20;14.70;;;3.90;99.90;;;;;;5064559;28;20056;-75
2024/03/06 05:09:21;;;;;;;33.35;15.77;;;3.80;99.90;;;;;;5063427;28;20049;-75
2024/03/06 05:11:50;;;;;;;32.50;15.77;;;3.80;99.90;;;;;;5061945;28;20097;-76
2024/03/06 05:14:16;;;;;;;32.58;15.50;;;3.80;99.90;;;;;;5064394;28;20033;-75
2024/03/06 05:16:41;;;;;;;34.47;15.65;;;3.80;99.90;;;;;;5063205;28;20047;-77
2024/03/06 05:19:07;;;;;;;36.42;16.13;;;3.70;99.90;;;;;;5064584;28;20355;-75
2024/03/06 05:21:33;;;;;;;31.65;15.60;;;3.80;99.90;;;;;;5062668;28;20079;-76
2024/03/06 05:23:59;;;;;;;33.65;16.20;;;3.80;99.90;;;;;;5062371;28;20033;-75
2024/03/06 05:26:24;;;;;;;32.65;15.77;;;3.90;99.90;;;;;;5061459;28;20047;-74
2024/03/06 05:28:50;;;;;;;33.92;14.75;;;3.70;99.90;;;;;;5063345;28;20036;-73
2024/03/06 05:31:23;;;;;;;34.50;15.82;;;3.70;99.90;;;;;;5063480;28;20036;-75
2024/03/06 05:33:49;;;;;;;37.63;16.58;;;3.70;99.90;;;;;;5063224;28;20029;-75
2024/03/06 05:36:15;;;;;;;33.85;16.08;;;3.70;99.90;;;;;;5061294;28;21024;-74
2024/03/06 05:38:41;;;;;;;33.30;16.60;;;3.70;99.90;;;;;;5062535;28;20044;-74
2024/03/06 05:41:08;;;;;;;37.08;15.95;;;3.70;99.90;;;;;;5060627;28;20021;-74
2024/03/06 05:43:34;;;;;;;33.88;15.95;;;3.60;99.90;;;;;;5061612;28;20025;-77
2024/03/06 05:46:00;;;;;;;37.72;16.20;;;3.60;99.90;;;;;;5062948;28;20040;-76
2024/03/06 05:48:26;;;;;;;37.97;16.80;;;3.60;99.90;;;;;;5061370;28;20077;-73
2024/03/06 05:50:55;;;;;;;34.72;15.95;;;3.70;99.90;;;;;;5062470;28;20040;-73
2024/03/06 05:53:21;;;;;;;37.13;16.33;;;3.60;99.90;;;;;;5063451;28;20025;-72
2024/03/06 05:55:46;;;;;;;31.80;15.02;;;3.60;99.90;;;;;;5063391;28;20032;-73
2024/03/06 05:58:12;;;;;;;35.28;16.02;;;3.60;99.90;;;;;;5063253;28;20032;-72
2024/03/06 06:00:39;;;;;;;34.58;16.20;;;3.60;99.90;;;;;;5062029;28;20085;-72
2024/03/06 06:03:04;;;;;;;38.17;15.52;;;3.60;99.90;;;;;;5060588;28;20104;-73
2024/03/06 06:05:30;;;;;;;37.25;16.40;;;3.60;99.90;;;;;;5047576;28;20056;-74
2024/03/06 06:07:56;;;;;;;31.42;15.48;;;3.60;99.90;;;;;;5058313;28;20786;-74
2024/03/06 06:10:21;;;;;;;35.17;15.68;;;3.50;99.90;;;;;;5056033;28;20087;-73
2024/03/06 06:12:47;;;;;;;34.60;15.10;;;3.50;99.90;;;;;;5057610;28;20028;-72
2024/03/06 06:15:13;;;;;;;36.35;16.08;;;3.60;99.90;;;;;;5059993;28;20045;-73
2024/03/06 06:17:38;;;;;;;31.00;15.05;;;3.50;99.90;;;;;;5060524;28;20025;-73
2024/03/06 06:20:09;;;;;;;31.20;14.85;;;3.50;99.90;;;;;;5053063;28;20025;-74
2024/03/06 06:22:36;;;;;;;33.78;15.50;;;3.50;99.90;;;;;;5057194;28;20113;-74
2024/03/06 06:25:03;;;;;;;32.97;15.95;;;3.50;99.90;;;;;;5055325;28;20105;-74
2024/03/06 06:27:29;;;;;;;36.97;15.88;;;3.60;99.90;;;;;;5055833;28;20037;-74
2024/03/06 06:29:55;;;;;;;33.40;15.25;;;3.60;99.90;;;;;;5056504;28;20029;-73
2024/03/06 06:32:21;;;;;;;31.23;15.35;;;3.60;99.90;;;;;;5057721;28;20037;-73
2024/03/06 06:34:46;;;;;;;34.35;14.73;;;3.60;99.90;;;;;;5060733;28;20075;-73
2024/03/06 06:37:12;;;;;;;31.95;15.55;;;3.60;99.90;;;;;;5058935;28;20028;-74
2024/03/06 06:39:38;;;;;;;33.70;14.63;;;3.60;99.90;;;;;;5062208;28;20030;-73
2024/03/06 06:42:04;;;;;;;38.63;15.43;;;3.60;99.90;;;;;;5063059;28;20025;-74
2024/03/06 06:44:30;;;;;;;33.45;15.00;;;3.70;99.90;;;;;;5063454;28;20401;-73
2024/03/06 06:46:56;;;;;;;33.38;15.52;;;3.70;99.90;;;;;;5063365;28;20041;-74
2024/03/06 06:49:21;;;;;;;32.53;15.18;;;3.80;99.90;;;;;;5060978;28;20056;-73
2024/03/06 06:51:49;;;;;;;33.97;15.23;;;3.80;99.90;;;;;;5060885;28;20036;-73
2024/03/06 06:54:14;;;;;;;30.38;14.98;;;3.80;99.90;;;;;;5061564;28;20105;-73
2024/03/06 06:56:40;;;;;;;29.10;14.18;;;3.90;99.90;;;;;;5061485;28;20051;-73
2024/03/06 06:59:05;;;;;;;35.40;15.43;;;3.90;99.90;;;;;;5060551;28;20035;-72
2024/03/06 07:01:32;;;;;;;32.42;15.65;;;4.00;99.90;;;;;;5061175;28;20517;-73
2024/03/06 07:03:58;;;;;;;34.17;15.38;;;4.00;99.90;;;;;;5062606;28;20025;-73
2024/03/06 07:06:25;;;;;;;31.70;14.82;;;4.00;99.90;;;;;;5061591;28;20041;-73
2024/03/06 07:08:51;;;;;;;32.03;15.32;;;4.00;99.90;;;;;;5061422;28;20469;-73
2024/03/06 07:11:20;;;;;;;31.95;15.95;;;4.10;99.90;;;;;;5060992;28;20032;-73
2024/03/06 07:13:45;;;;;;;27.45;13.45;;;4.10;99.90;;;;;;5060706;28;20032;-73
2024/03/06 07:16:11;;;;;;;30.38;14.52;;;4.10;99.90;;;;;;5062968;28;20028;-72
2024/03/06 07:18:37;;;;;;;31.33;14.38;;;4.20;99.90;;;;;;5057095;28;20071;-72
2024/03/06 07:21:02;;;;;;;30.70;15.18;;;4.20;99.90;;;;;;5057458;28;20128;-74
2024/03/06 07:23:28;;;;;;;37.40;14.85;;;4.20;99.90;;;;;;5057855;28;20025;-73
2024/03/06 07:25:53;;;;;;;31.17;14.68;;;4.20;99.90;;;;;;5061727;28;20033;-74
2024/03/06 07:28:20;;;;;;;36.35;15.30;;;4.20;99.90;;;;;;5060263;28;20486;-73
2024/03/06 07:30:46;;;;;;;28.92;14.00;;;4.20;99.90;;;;;;5059649;28;20031;-73
2024/03/06 07:33:12;;;;;;;33.08;15.65;;;4.20;99.90;;;;;;5062460;28;20089;-73
2024/03/06 07:35:38;;;;;;;29.05;15.02;;;4.20;99.90;;;;;;5059969;28;20040;-74
2024/03/06 07:38:04;;;;;;;28.88;14.65;;;4.30;99.90;;;;;;5059327;28;20021;-74
2024/03/06 07:40:31;;;;;;;31.17;14.38;;;4.40;99.90;;;;;;5059722;28;20635;-73
2024/03/06 07:42:57;;;;;;;33.03;15.35;;;4.50;99.90;;;;;;5057787;28;20391;-73
2024/03/06 07:45:23;;;;;;;33.65;15.40;;;4.50;99.90;;;;;;5058232;28;20090;-73
2024/03/06 07:47:48;;;;;;;29.23;14.80;;;4.50;99.90;;;;;;5058922;28;20024;-73
2024/03/06 07:50:18;;;;;;;29.30;14.73;;;4.50;99.90;;;;;;5062009;28;20648;-72
2024/03/06 07:52:45;;;;;;;31.50;14.15;;;4.50;99.90;;;;;;5058966;28;20031;-73
2024/03/06 07:55:10;;;;;;;28.27;14.35;;;4.50;99.90;;;;;;5061820;28;20084;-73
2024/03/06 07:57:36;;;;;;;30.92;15.40;;;4.50;99.90;;;;;;5061344;28;20061;-73
2024/03/06 08:00:08;;;;;;;33.40;15.23;;;4.50;99.90;;;;;;5060823;28;20089;-73
2024/03/06 08:02:35;;;;;;;32.25;15.45;;;4.60;99.90;;;;;;5061051;28;20041;-72
2024/03/06 08:05:01;;;;;;;30.60;15.30;;;4.60;99.90;;;;;;5061937;28;20016;-73
2024/03/06 08:07:26;;;;;;;28.75;14.75;;;4.70;99.90;;;;;;5058999;28;20039;-74
2024/03/06 08:09:52;;;;;;;31.00;14.88;;;4.70;99.90;;;;;;5055583;28;20045;-73
2024/03/06 08:12:17;;;;;;;29.42;14.88;;;4.80;99.90;;;;;;5059990;28;20033;-72
2024/03/06 08:14:43;;;;;;;32.38;15.40;;;4.80;99.90;;;;;;5057217;28;20033;-74
2024/03/06 08:17:08;;;;;;;31.42;15.05;;;4.90;99.90;;;;;;5060049;28;20025;-72
2024/03/06 08:19:34;;;;;;;34.58;14.90;;;4.90;99.90;;;;;;5059619;28;20100;-73
2024/03/06 08:22:01;;;;;;;32.70;15.45;;;4.90;99.90;;;;;;5050794;28;20021;-73
2024/03/06 08:24:27;;;;;;;28.70;15.18;;;4.90;99.90;;;;;;5057863;28;20017;-72
2024/03/06 08:26:52;;;;;;;31.02;15.25;;;4.90;99.90;;;;;;5059878;28;20037;-73
2024/03/06 08:29:18;;;;;;;30.95;15.77;;;4.90;99.90;;;;;;5050155;28;20485;-73
2024/03/06 08:31:43;;;;;;;34.50;15.40;;;4.90;99.90;;;;;;5060405;28;20029;-73
2024/03/06 08:34:09;;;;;;;32.67;15.40;;;5.00;99.90;;;;;;5057273;28;20017;-72
2024/03/06 08:36:34;;;;;;;31.88;14.80;;;5.00;99.90;;;;;;5058227;28;20557;-73
2024/03/06 08:39:00;;;;;;;33.38;15.15;;;5.00;99.90;;;;;;5055205;28;20029;-73
2024/03/06 08:41:25;;;;;;;35.60;16.10;;;5.00;99.90;;;;;;5060099;28;20096;-72
2024/03/06 08:43:51;;;;;;;30.83;14.60;;;5.20;99.90;;;;;;5059574;28;20140;-72
2024/03/06 08:46:16;;;;;;;30.33;15.32;;;5.40;99.90;;;;;;5059845;28;20045;-72
2024/03/06 08:48:42;;;;;;;30.45;15.57;;;5.30;99.90;;;;;;5059942;28;20031;-72
2024/03/06 08:51:10;;;;;;;29.45;16.17;;;5.40;99.90;;;;;;5058224;28;20051;-73
2024/03/06 08:53:37;;;;;;;32.17;15.98;;;5.50;99.90;;;;;;5060877;28;20040;-73
2024/03/06 08:56:03;;;;;;;31.05;15.73;;;5.60;99.90;;;;;;5057534;28;20055;-74
2024/03/06 08:58:29;;;;;;;28.30;14.57;;;5.70;99.90;;;;;;5057797;28;20051;-73
2024/03/06 09:00:55;;;;;;;30.30;14.85;;;5.90;99.90;;;;;;5058692;28;20025;-72
2024/03/06 09:03:20;;;;;;;28.02;14.90;;;6.20;99.90;;;;;;5060863;28;20025;-73
2024/03/06 09:05:46;;;;;;;29.88;15.27;;;6.40;99.90;;;;;;5057211;28;20052;-74
2024/03/06 09:08:12;;;;;;;29.10;15.18;;;6.60;99.90;;;;;;5057791;28;20025;-73
2024/03/06 09:10:38;;;;;;;32.38;16.20;;;6.60;99.90;;;;;;5057930;28;20053;-74
2024/03/06 09:13:04;;;;;;;32.20;15.20;;;6.60;99.90;;;;;;5055641;28;20014;-74
2024/03/06 09:15:29;;;;;;;30.25;15.65;;;6.60;99.90;;;;;;5057587;28;20047;-74
2024/03/06 09:17:55;;;;;;;29.52;15.20;;;6.60;99.90;;;;;;5063818;28;20031;-73
2024/03/06 09:20:20;;;;;;;30.30;14.98;;;6.60;99.90;;;;;;5063136;28;20063;-73
2024/03/06 09:22:46;;;;;;;29.20;15.45;;;6.60;99.90;;;;;;5063572;28;20055;-74
2024/03/06 09:25:13;;;;;;;29.60;14.82;;;6.60;99.90;;;;;;5062117;28;20021;-75
2024/03/06 09:27:39;;;;;;;35.80;15.50;;;6.90;99.90;;;;;;5054064;28;20037;-73
2024/03/06 09:30:05;;;;;;;29.65;15.40;;;7.00;99.90;;;;;;5061988;28;20021;-74
2024/03/06 09:32:31;;;;;;;26.40;15.18;;;7.10;99.90;;;;;;5060742;28;20021;-74
2024/03/06 09:34:58;;;;;;;28.92;15.55;;;7.00;99.90;;;;;;5061218;28;20112;-74
2024/03/06 09:37:23;;;;;;;29.55;15.60;;;7.00;99.90;;;;;;5061255;28;20086;-73
2024/03/06 09:39:49;;;;;;;30.50;15.38;;;7.00;99.90;;;;;;5061514;28;20029;-73
2024/03/06 09:42:18;;;;;;;29.38;16.58;;;7.10;99.90;;;;;;5063722;28;20056;-74
2024/03/06 09:44:44;;;;;;;29.70;15.32;;;7.10;99.90;;;;;;5060491;28;20025;-74
2024/03/06 09:47:14;;;;;;;31.23;15.32;;;7.20;99.90;;;;;;5062056;28;20045;-73
2024/03/06 09:49:40;;;;;;;32.50;16.45;;;7.50;99.90;;;;;;5061030;28;20024;-74
2024/03/06 09:52:06;;;;;;;28.13;15.63;;;7.70;99.90;;;;;;5064547;28;20470;-73
2024/03/06 09:54:32;;;;;;;28.85;14.98;;;7.90;99.90;;;;;;5061771;28;20050;-72
2024/03/06 09:56:58;;;;;;;28.90;15.60;;;8.10;99.90;;;;;;5062418;28;20189;-73
2024/03/06 09:59:24;;;;;;;33.20;15.95;;;8.10;99.90;;;;;;5062605;28;20103;-72
2024/03/06 10:01:54;;;;;;;28.25;14.50;;;8.20;99.90;;;;;;5061809;28;20025;-73
2024/03/06 10:04:20;;;;;;;27.73;15.63;;;8.30;99.90;;;;;;5062123;28;20025;-72
2024/03/06 10:06:46;;;;;;;30.40;15.55;;;8.60;99.90;;;;;;5061657;28;20036;-73
2024/03/06 10:09:12;;;;;;;30.52;14.23;;;8.80;99.90;;;;;;5063303;28;20057;-73
2024/03/06 10:11:42;;;;;;;27.52;14.23;;;9.00;99.90;;;;;;5063781;28;20021;-74
2024/03/06 10:14:08;;;;;;;26.67;15.40;;;9.10;99.90;;;;;;5063895;28;20025;-73
2024/03/06 10:16:36;;;;;;;28.48;14.85;;;9.40;99.90;;;;;;5062490;28;20017;-73
2024/03/06 10:19:18;;;;;;;25.02;14.88;;;9.60;99.90;;;;;;5062689;28;20025;-73
2024/03/06 10:21:46;;;;;;;28.83;15.82;;;9.80;99.90;;;;;;5062054;28;20025;-73
2024/03/06 10:24:12;;;;;;;26.63;15.80;;;10.10;99.90;;;;;;5061826;28;20025;-72
2024/03/06 10:26:38;;;;;;;25.85;15.15;;;10.30;99.90;;;;;;5059752;28;20037;-72
2024/03/06 10:29:03;;;;;;;25.80;15.40;;;10.40;99.90;;;;;;5060272;28;20028;-74
2024/03/06 10:31:29;;;;;;;26.83;15.13;;;10.50;99.90;;;;;;5062317;28;20021;-74
2024/03/06 10:33:55;;;;;;;24.58;15.95;;;10.60;99.90;;;;;;5063944;28;20032;-73
2024/03/06 10:36:21;;;;;;;25.73;15.10;;;10.70;99.90;;;;;;5062094;28;20123;-73
2024/03/06 10:38:50;;;;;;;25.83;15.35;;;10.80;99.90;;;;;;5061739;28;20572;-74
2024/03/06 10:41:21;;;;;;;28.73;16.55;;;11.00;99.90;;;;;;5063203;28;20074;-74
2024/03/06 10:43:50;;;;;;;32.15;16.45;;;11.20;99.90;;;;;;5063134;28;20040;-72
2024/03/06 10:46:19;;;;;;;26.63;16.13;;;11.30;99.90;;;;;;5058190;28;20044;-73
2024/03/06 10:48:47;;;;;;;26.08;14.93;;;11.50;99.90;;;;;;5063289;28;20020;-73
2024/03/06 10:51:14;;;;;;;24.92;15.02;;;11.60;99.90;;;;;;5057993;28;20386;-75
2024/03/06 10:53:41;;;;;;;28.85;16.73;;;11.60;99.90;;;;;;5058993;28;20382;-72
2024/03/06 10:56:09;;;;;;;27.67;16.52;;;11.70;99.90;;;;;;5062265;28;20029;-73
2024/03/06 10:58:40;;;;;;;25.60;15.77;;;11.90;99.90;;;;;;5059636;28;20513;-74
2024/03/06 11:01:08;;;;;;;25.85;14.85;;;12.10;99.90;;;;;;5060805;28;20021;-78
2024/03/06 11:03:35;;;;;;;26.10;16.80;;;12.20;99.90;;;;;;5061497;28;20031;-73
2024/03/06 11:06:02;;;;;;;30.80;16.92;;;12.30;99.90;;;;;;5059689;28;20115;-73
2024/03/06 11:08:28;;;;;;;27.15;16.65;;;12.10;99.90;;;;;;5062454;28;20017;-74
2024/03/06 11:11:14;;;;;;;32.00;17.33;;;12.00;99.90;;;;;;5060462;28;20127;-74
2024/03/06 11:13:40;;;;;;;24.70;15.40;;;12.00;99.90;;;;;;5059766;28;20540;-74
2024/03/06 11:16:08;;;;;;;26.48;16.98;;;11.90;99.90;;;;;;5055466;28;20039;-73
2024/03/06 11:18:36;;;;;;;28.38;16.33;;;12.10;99.90;;;;;;5059595;28;20028;-74
2024/03/06 11:21:02;;;;;;;28.60;17.05;;;12.30;99.90;;;;;;5061854;28;20088;-74
2024/03/06 11:23:27;;;;;;;29.70;16.80;;;12.50;99.90;;;;;;5062757;28;20017;-74
2024/03/06 11:25:58;;;;;;;28.90;16.20;;;12.50;99.90;;;;;;5060789;28;20115;-74
2024/03/06 11:28:28;;;;;;;28.40;15.30;;;12.40;99.90;;;;;;5060298;28;20052;-74
2024/03/06 11:30:53;;;;;;;25.83;15.20;;;12.20;99.90;;;;;;5060495;28;20039;-74
2024/03/06 11:33:19;;;;;;;26.23;16.25;;;12.10;99.90;;;;;;5060388;28;20060;-72
2024/03/06 11:36:22;;;;;;;23.90;16.05;;;12.10;99.90;;;;;;5059989;28;20029;-74
2024/03/06 11:39:00;;;;;;;27.88;16.05;;;12.10;99.90;;;;;;5060193;28;20078;-73
2024/03/06 11:41:30;;;;;;;27.33;16.13;;;12.20;99.90;;;;;;5059628;28;20072;-74
2024/03/06 11:43:59;;;;;;;28.42;16.73;;;12.60;99.90;;;;;;5058446;28;20059;-71
2024/03/06 11:46:41;;;;;;;32.65;18.05;;;12.70;99.90;;;;;;5061799;28;20067;-72
2024/03/06 11:49:18;;;;;;;31.15;15.98;;;12.70;99.90;;;;;;5059890;28;20025;-74
2024/03/06 11:51:46;;;;;;;28.65;16.58;;;12.50;99.90;;;;;;5056951;28;20056;-74
2024/03/06 11:54:12;;;;;;;31.17;16.40;;;12.40;99.90;;;;;;5061422;28;20035;-73
2024/03/06 11:56:40;;;;;;;27.30;14.45;;;12.30;99.90;;;;;;5055453;28;20032;-75
2024/03/06 11:59:07;;;;;;;28.10;16.92;;;12.50;99.90;;;;;;5055037;28;20092;-73
2024/03/06 12:01:36;;;;;;;28.38;16.98;;;13.00;99.90;;;;;;5060426;28;20025;-73
2024/03/06 12:04:06;;;;;;;33.45;18.33;;;13.50;99.90;;;;;;5060395;28;20021;-73
2024/03/06 12:06:36;;;;;;;29.60;16.77;;;13.90;99.90;;;;;;5060841;28;20041;-72
2024/03/06 12:09:03;;;;;;;26.70;17.40;;;14.30;99.90;;;;;;5061122;28;20540;-74
2024/03/06 12:11:30;;;;;;;28.55;16.90;;;14.60;99.90;;;;;;5059512;28;20036;-74
2024/03/06 12:13:56;;;;;;;28.35;16.30;;;14.80;99.90;;;;;;5060974;28;20036;-73
2024/03/06 12:16:22;;;;;;;27.13;16.95;;;15.20;99.90;;;;;;5060745;28;20037;-72
2024/03/06 12:18:58;;;;;;;29.15;18.10;;;15.40;99.90;;;;;;5060177;28;20049;-73
2024/03/06 12:21:34;;;;;;;29.60;17.75;;;15.40;99.90;;;;;;5058224;28;20025;-73
2024/03/06 12:24:04;;;;;;;32.28;17.95;;;15.50;99.90;;;;;;5060217;28;20059;-73
2024/03/06 12:26:30;;;;;;;26.77;15.75;;;15.70;99.90;;;;;;5061539;28;20033;-73
2024/03/06 12:29:07;;;;;;;28.98;16.88;;;15.90;99.90;;;;;;5061568;28;20056;-73
2024/03/06 12:31:34;;;;;;;32.67;19.10;;;16.00;99.90;;;;;;5060717;28;20036;-73
2024/03/06 12:34:02;;;;;;;27.65;17.15;;;16.00;99.90;;;;;;5059574;28;20029;-76